createdAt,value
2023-04-18T00:00:38.283Z,19.96
2023-04-18T00:03:05.165Z,19.96
2023-04-18T00:05:32.586Z,19.97
2023-04-18T00:07:59.812Z,19.97
2023-04-18T00:10:27.029Z,19.98
2023-04-18T00:12:54.319Z,19.97
2023-04-18T00:15:21.518Z,19.99
2023-04-18T00:17:48.797Z,19.97
2023-04-18T00:20:17.987Z,19.96
2023-04-18T00:22:44.409Z,19.97
2023-04-18T00:25:10.841Z,19.98
2023-04-18T00:27:37.233Z,19.99
2023-04-18T00:30:04.471Z,19.97
2023-04-18T00:32:30.945Z,19.97
2023-04-18T00:34:58.192Z,19.98
2023-04-18T00:37:24.600Z,19.98
2023-04-18T00:39:51.017Z,19.99
2023-04-18T00:42:20.189Z,19.99
2023-04-18T00:44:46.734Z,19.99
2023-04-18T00:47:13.078Z,19.98
2023-04-18T00:49:39.418Z,19.99
2023-04-18T00:52:06.636Z,19.98
2023-04-18T00:54:33.037Z,19.99
2023-04-18T00:56:59.422Z,19.99
2023-04-18T00:59:25.771Z,19.99
2023-04-18T01:01:52.304Z,19.99
2023-04-18T01:04:19.788Z,19.99
2023-04-18T01:06:46.310Z,19.99
2023-04-18T01:09:12.684Z,19.99
2023-04-18T01:11:39.026Z,19.99
2023-04-18T01:14:05.392Z,19.99
2023-04-18T01:16:32.637Z,19.99
2023-04-18T01:18:59.021Z,20.00
2023-04-18T01:21:25.347Z,19.99
2023-04-18T01:23:51.685Z,20.00
2023-04-18T01:26:18.900Z,19.99
2023-04-18T01:28:45.257Z,19.99
2023-04-18T01:31:11.641Z,19.99
2023-04-18T01:33:38.059Z,20.00
2023-04-18T01:36:04.493Z,20.00
2023-04-18T01:38:30.859Z,20.00
2023-04-18T01:40:57.232Z,20.00
2023-04-18T01:43:23.587Z,20.00
2023-04-18T01:45:50.052Z,20.00
2023-04-18T01:48:17.306Z,20.00
2023-04-18T01:50:43.711Z,20.00
2023-04-18T01:53:10.125Z,20.00
2023-04-18T01:55:36.467Z,20.00
2023-04-18T01:58:02.816Z,20.00
2023-04-18T02:00:30.136Z,20.00
2023-04-18T02:02:56.668Z,20.01
2023-04-18T02:05:23.188Z,20.01
2023-04-18T02:07:49.551Z,20.01
2023-04-18T02:10:15.997Z,20.01
2023-04-18T02:12:43.204Z,20.01
2023-04-18T02:15:09.548Z,20.01
2023-04-18T02:17:35.901Z,20.01
2023-04-18T02:20:02.265Z,20.02
2023-04-18T02:22:29.473Z,20.01
2023-04-18T02:24:55.838Z,20.00
2023-04-18T02:27:23.112Z,20.01
2023-04-18T02:29:50.350Z,20.01
2023-04-18T02:32:18.605Z,20.01
2023-04-18T02:34:44.969Z,20.01
2023-04-18T02:37:11.335Z,20.01
2023-04-18T02:39:37.770Z,20.01
2023-04-18T02:42:04.996Z,20.01
2023-04-18T02:44:31.351Z,20.02
2023-04-18T02:46:58.550Z,20.01
2023-04-18T02:49:25.818Z,20.01
2023-04-18T02:51:52.141Z,20.01
2023-04-18T02:54:19.343Z,20.01
2023-04-18T02:56:45.684Z,20.01
2023-04-18T02:59:12.917Z,20.01
2023-04-18T03:01:40.215Z,20.01
2023-04-18T03:04:06.650Z,20.01
2023-04-18T03:06:33.007Z,20.02
2023-04-18T03:08:59.368Z,20.01
2023-04-18T03:11:25.763Z,20.02
2023-04-18T03:13:52.114Z,20.02
2023-04-18T03:16:19.409Z,20.02
2023-04-18T03:18:45.764Z,20.01
2023-04-18T03:21:12.107Z,20.01
2023-04-18T03:23:41.226Z,20.02
2023-04-18T03:26:07.565Z,20.02
2023-04-18T03:28:34.037Z,20.03
2023-04-18T03:31:00.409Z,20.02
2023-04-18T03:33:26.736Z,20.03
2023-04-18T03:35:53.118Z,20.02
2023-04-18T03:38:19.435Z,20.02
2023-04-18T03:40:45.779Z,20.03
2023-04-18T03:43:14.904Z,20.03
2023-04-18T03:45:41.257Z,20.02
2023-04-18T03:48:08.461Z,20.02
2023-04-18T03:50:35.695Z,20.03
2023-04-18T03:53:02.025Z,20.03
2023-04-18T03:55:28.362Z,20.03
2023-04-18T03:57:54.726Z,20.04
2023-04-18T04:00:21.077Z,20.03
2023-04-18T04:02:47.707Z,20.04
2023-04-18T04:05:14.198Z,20.03
2023-04-18T04:07:40.551Z,20.03
2023-04-18T04:10:07.766Z,20.04
2023-04-18T04:12:34.070Z,20.04
2023-04-18T04:15:01.298Z,20.04
2023-04-18T04:17:27.670Z,20.04
2023-04-18T04:19:54.120Z,20.04
2023-04-18T04:22:21.355Z,20.03
2023-04-18T04:24:49.562Z,20.04
2023-04-18T04:27:15.924Z,20.04
2023-04-18T04:29:42.260Z,20.04
2023-04-18T04:32:08.660Z,20.04
2023-04-18T04:34:35.903Z,20.05
2023-04-18T04:37:02.310Z,20.05
2023-04-18T04:39:28.692Z,20.05
2023-04-18T04:41:55.003Z,20.05
2023-04-18T04:44:21.389Z,20.05
2023-04-18T04:46:47.777Z,20.05
2023-04-18T04:49:15.044Z,20.05
2023-04-18T04:51:41.372Z,20.06
2023-04-18T04:54:07.729Z,20.06
2023-04-18T04:56:34.103Z,20.06
2023-04-18T04:59:00.471Z,20.06
2023-04-18T05:01:26.818Z,20.07
2023-04-18T05:03:54.204Z,20.07
2023-04-18T05:06:21.547Z,20.08
2023-04-18T05:08:48.811Z,20.10
2023-04-18T05:11:16.039Z,20.11
2023-04-18T05:13:42.350Z,20.11
2023-04-18T05:16:09.697Z,20.11
2023-04-18T05:18:36.949Z,20.13
2023-04-18T05:21:03.337Z,20.14
2023-04-18T05:23:30.020Z,20.14
2023-04-18T05:28:28.581Z,20.17
2023-04-18T05:30:58.049Z,20.20
2023-04-18T05:33:26.655Z,20.20
2023-04-18T05:35:53.370Z,20.20
2023-04-18T05:38:22.591Z,20.22
2023-04-18T05:40:49.850Z,20.22
2023-04-18T05:43:16.347Z,20.21
2023-04-18T05:45:42.829Z,20.21
2023-04-18T05:48:09.361Z,20.22
2023-04-18T05:50:35.968Z,20.22
2023-04-18T05:53:03.198Z,20.23
2023-04-18T05:55:30.436Z,20.21
2023-04-18T05:57:58.731Z,20.21
2023-04-18T06:00:25.217Z,20.20
2023-04-18T06:02:51.811Z,20.21
2023-04-18T06:05:20.450Z,20.20
2023-04-18T06:07:47.107Z,20.21
2023-04-18T06:10:13.607Z,20.20
2023-04-18T06:12:40.054Z,20.20
2023-04-18T06:15:06.813Z,20.21
2023-04-18T06:17:34.089Z,20.20
2023-04-18T06:20:01.370Z,20.21
2023-04-18T06:22:28.663Z,20.20
2023-04-18T06:24:55.933Z,20.21
2023-04-18T06:27:30.491Z,20.22
2023-04-18T06:29:58.192Z,20.24
2023-04-18T06:32:24.789Z,20.24
2023-04-18T06:34:52.131Z,20.24
2023-04-18T06:37:18.575Z,20.23
2023-04-18T06:39:45.826Z,20.23
2023-04-18T06:42:12.229Z,20.22
2023-04-18T06:44:39.546Z,20.22
2023-04-18T06:47:05.970Z,20.22
2023-04-18T06:49:32.475Z,20.21
2023-04-18T06:52:00.788Z,20.22
2023-04-18T06:54:28.032Z,20.22
2023-04-18T06:56:56.339Z,20.23
2023-04-18T06:59:23.570Z,20.23
2023-04-18T07:01:50.976Z,20.23
2023-04-18T07:04:18.596Z,20.26
2023-04-18T07:06:45.381Z,20.24
2023-04-18T07:09:12.672Z,20.24
2023-04-18T07:11:39.945Z,20.24
2023-04-18T07:14:07.402Z,20.26
2023-04-18T07:16:34.779Z,20.27
2023-04-18T07:19:01.230Z,20.28
2023-04-18T07:21:31.200Z,20.29
2023-04-18T07:23:58.478Z,20.31
2023-04-18T07:26:24.980Z,20.31
2023-04-18T07:28:52.310Z,19.94
2023-04-18T07:31:18.804Z,19.83
2023-04-18T07:33:46.161Z,19.72
2023-04-18T07:36:12.584Z,19.73
2023-04-18T07:38:39.922Z,19.69
2023-04-18T07:41:07.259Z,19.54
2023-04-18T07:43:33.756Z,19.63
2023-04-18T07:46:01.215Z,19.68
2023-04-18T07:48:27.757Z,19.66
2023-04-18T07:50:55.154Z,19.85
2023-04-18T07:53:22.550Z,19.78
2023-04-18T07:55:49.927Z,19.83
2023-04-18T07:58:17.253Z,19.76
2023-04-18T08:00:44.738Z,19.85
2023-04-18T08:03:12.556Z,19.48
2023-04-18T08:05:39.406Z,19.09
2023-04-18T08:08:05.873Z,19.11
2023-04-18T08:10:33.242Z,19.32
2023-04-18T08:13:00.721Z,19.46
2023-04-18T08:15:28.120Z,19.36
2023-04-18T08:17:55.534Z,19.34
2023-04-18T08:20:23.033Z,19.36
2023-04-18T08:23:05.221Z,19.07
2023-04-18T08:25:35.246Z,19.46
2023-04-18T08:28:01.703Z,19.15
2023-04-18T08:30:29.159Z,18.86
2023-04-18T08:32:56.600Z,19.29
2023-04-18T08:35:24.038Z,19.59
2023-04-18T08:37:51.407Z,19.60
2023-04-18T08:40:17.839Z,19.70
2023-04-18T08:42:45.257Z,19.70
2023-04-18T08:45:11.729Z,19.69
2023-04-18T08:47:38.207Z,19.60
2023-04-18T08:50:04.690Z,19.43
2023-04-18T08:52:31.195Z,19.50
2023-04-18T08:54:57.712Z,19.50
2023-04-18T08:57:25.090Z,19.46
2023-04-18T08:59:52.537Z,19.41
2023-04-18T09:02:19.906Z,19.47
2023-04-18T09:04:47.430Z,19.59
2023-04-18T09:07:13.888Z,19.60
2023-04-18T09:09:41.260Z,19.75
2023-04-18T09:12:07.720Z,19.66
2023-04-18T09:14:35.111Z,19.56
2023-04-18T09:17:01.694Z,19.63
2023-04-18T09:19:28.201Z,19.69
2023-04-18T09:21:55.604Z,19.77
2023-04-18T09:24:22.075Z,19.77
2023-04-18T09:26:49.512Z,19.68
2023-04-18T09:29:15.970Z,19.69
2023-04-18T09:31:43.351Z,19.33
2023-04-18T09:34:10.766Z,19.46
2023-04-18T09:36:37.362Z,19.78
2023-04-18T09:39:04.820Z,19.90
2023-04-18T09:41:32.214Z,19.76
2023-04-18T09:43:58.660Z,19.87
2023-04-18T09:46:26.078Z,19.90
2023-04-18T09:48:52.533Z,19.85
2023-04-18T09:51:19.871Z,19.71
2023-04-18T09:53:47.266Z,19.55
2023-04-18T09:56:14.680Z,19.46
2023-04-18T09:58:41.151Z,19.45
2023-04-18T10:01:07.679Z,19.50
2023-04-18T10:03:35.293Z,19.45
2023-04-18T10:06:01.832Z,19.44
2023-04-18T10:08:29.237Z,19.49
2023-04-18T10:10:56.621Z,19.50
2023-04-18T10:13:23.116Z,19.44
2023-04-18T10:15:53.622Z,19.47
2023-04-18T10:18:20.205Z,19.42
2023-04-18T10:20:46.713Z,19.45
2023-04-18T10:23:14.099Z,19.43
2023-04-18T10:25:40.655Z,19.47
2023-04-18T10:28:08.106Z,19.48
2023-04-18T10:30:34.592Z,19.42
2023-04-18T10:33:02.070Z,19.24
2023-04-18T10:35:28.590Z,19.30
2023-04-18T10:37:55.979Z,19.43
2023-04-18T10:40:23.343Z,19.52
2023-04-18T10:42:50.709Z,19.47
2023-04-18T10:45:18.101Z,19.47
2023-04-18T10:47:44.642Z,19.43
2023-04-18T10:50:11.163Z,19.39
2023-04-18T10:52:37.648Z,19.43
2023-04-18T10:55:05.048Z,19.45
2023-04-18T10:57:32.486Z,19.40
2023-04-18T10:59:59.857Z,19.34
2023-04-18T11:02:26.456Z,19.31
2023-04-18T11:04:53.012Z,19.32
2023-04-18T11:07:20.400Z,19.28
2023-04-18T11:09:46.841Z,19.27
2023-04-18T11:12:13.314Z,19.30
2023-04-18T11:14:40.718Z,19.33
2023-04-18T11:17:07.179Z,19.47
2023-04-18T11:19:34.553Z,19.54
2023-04-18T11:22:02.073Z,19.58
2023-04-18T11:24:29.541Z,19.60
2023-04-18T11:26:56.451Z,19.64
2023-04-18T11:29:22.967Z,19.67
2023-04-18T11:31:50.403Z,19.71
2023-04-18T11:34:17.829Z,19.75
2023-04-18T11:36:45.283Z,19.77
2023-04-18T11:39:11.761Z,19.78
2023-04-18T11:41:39.123Z,19.79
2023-04-18T11:44:06.545Z,19.78
2023-04-18T11:46:33.133Z,19.78
2023-04-18T11:48:59.620Z,19.78
2023-04-18T11:51:26.999Z,19.80
2023-04-18T11:53:54.434Z,19.81
2023-04-18T11:56:21.784Z,19.80
2023-04-18T11:58:48.252Z,19.83
2023-04-18T12:01:14.724Z,19.81
2023-04-18T12:03:42.291Z,19.83
2023-04-18T12:06:08.900Z,19.81
2023-04-18T12:08:35.350Z,19.79
2023-04-18T12:11:01.838Z,19.78
2023-04-18T12:13:28.280Z,19.80
2023-04-18T12:15:54.824Z,19.80
2023-04-18T12:18:22.261Z,19.81
2023-04-18T12:20:49.650Z,19.80
2023-04-18T12:23:16.117Z,19.80
2023-04-18T12:25:42.524Z,19.81
2023-04-18T12:28:09.912Z,19.85
2023-04-18T12:30:37.878Z,19.85
2023-04-18T12:33:05.382Z,19.83
2023-04-18T12:35:31.852Z,19.85
2023-04-18T12:37:58.350Z,19.82
2023-04-18T12:40:24.792Z,19.83
2023-04-18T12:42:52.161Z,19.81
2023-04-18T12:45:19.533Z,19.85
2023-04-18T12:47:45.991Z,19.84
2023-04-18T12:50:12.474Z,19.87
2023-04-18T12:52:39.834Z,19.87
2023-04-18T12:55:07.242Z,19.90
2023-04-18T12:57:34.527Z,19.91
2023-04-18T13:00:01.845Z,19.92
2023-04-18T13:02:28.385Z,19.93
2023-04-18T13:04:55.805Z,19.92
2023-04-18T13:07:23.211Z,19.92
2023-04-18T13:09:50.480Z,19.88
2023-04-18T13:12:17.721Z,19.81
2023-04-18T13:14:45.132Z,19.79
2023-04-18T13:17:12.495Z,19.73
2023-04-18T13:19:38.932Z,19.72
2023-04-18T13:22:06.299Z,19.72
2023-04-18T13:24:32.697Z,19.70
2023-04-18T13:27:01.579Z,19.72
2023-04-18T13:29:28.147Z,19.71
2023-04-18T13:31:55.541Z,19.71
2023-04-18T13:34:22.026Z,19.67
2023-04-18T13:36:49.276Z,19.68
2023-04-18T13:39:17.187Z,19.68
2023-04-18T13:41:44.573Z,19.65
2023-04-18T13:44:10.996Z,19.67
2023-04-18T13:46:37.428Z,19.63
2023-04-18T13:49:04.942Z,19.65
2023-04-18T13:51:31.372Z,19.64
2023-04-18T13:53:57.845Z,19.66
2023-04-18T13:56:25.529Z,19.66
2023-04-18T13:58:51.986Z,19.65
2023-04-18T14:01:19.585Z,19.63
2023-04-18T14:03:47.149Z,19.62
2023-04-18T14:06:15.133Z,19.64
2023-04-18T14:08:43.446Z,19.62
2023-04-18T14:11:09.877Z,19.63
2023-04-18T14:13:37.171Z,19.63
2023-04-18T14:16:03.629Z,19.64
2023-04-18T14:18:30.918Z,19.64
2023-04-18T14:20:57.344Z,19.63
2023-04-18T14:23:23.829Z,19.63
2023-04-18T14:25:51.166Z,19.63
2023-04-18T14:28:18.463Z,19.62
2023-04-18T14:30:44.950Z,19.62
2023-04-18T14:33:12.227Z,19.64
2023-04-18T14:35:38.761Z,19.61
2023-04-18T14:38:06.061Z,19.60
2023-04-18T14:40:34.340Z,19.62
2023-04-18T14:43:01.586Z,19.60
2023-04-18T14:45:28.098Z,19.60
2023-04-18T14:47:54.587Z,19.60
2023-04-18T14:50:22.969Z,19.60
2023-04-18T14:52:51.281Z,19.61
2023-04-18T14:55:17.725Z,19.60
2023-04-18T14:57:44.161Z,19.57
2023-04-18T15:00:10.623Z,19.58
2023-04-18T15:02:38.043Z,19.58
2023-04-18T15:05:07.610Z,19.58
2023-04-18T15:07:34.260Z,19.56
2023-04-18T15:10:01.507Z,19.57
2023-04-18T15:12:27.939Z,19.57
2023-04-18T15:14:54.420Z,19.57
2023-04-18T15:17:20.965Z,19.58
2023-04-18T15:19:47.435Z,19.57
2023-04-18T15:22:13.819Z,19.54
2023-04-18T15:24:40.370Z,19.51
2023-04-18T15:27:06.793Z,19.52
2023-04-18T15:29:35.077Z,19.48
2023-04-18T15:32:01.535Z,19.47
2023-04-18T15:34:29.867Z,19.46
2023-04-18T15:36:56.367Z,19.46
2023-04-18T15:39:22.799Z,19.46
2023-04-18T15:41:51.112Z,19.48
2023-04-18T15:44:17.566Z,19.47
2023-04-18T15:46:43.984Z,19.48
2023-04-18T15:49:11.549Z,19.48
2023-04-18T15:51:38.045Z,19.46
2023-04-18T15:54:06.339Z,19.48
2023-04-18T15:56:35.524Z,19.48
2023-04-18T15:59:02.004Z,19.47
2023-04-18T16:01:31.230Z,19.45
2023-04-18T16:04:00.534Z,19.46
2023-04-18T16:06:27.105Z,19.48
2023-04-18T16:08:53.552Z,19.52
2023-04-18T16:11:20.068Z,19.57
2023-04-18T16:13:49.265Z,19.59
2023-04-18T16:16:17.635Z,19.60
2023-04-18T16:18:46.021Z,19.60
2023-04-18T16:21:12.498Z,19.60
2023-04-18T16:23:39.736Z,19.60
2023-04-18T16:26:08.037Z,19.59
2023-04-18T16:28:37.390Z,19.58
2023-04-18T16:31:03.908Z,19.57
2023-04-18T16:33:33.175Z,19.54
2023-04-18T16:35:59.697Z,19.57
2023-04-18T16:38:29.211Z,19.56
2023-04-18T16:40:55.663Z,19.56
2023-04-18T16:43:22.111Z,19.56
2023-04-18T16:45:50.410Z,19.54
2023-04-18T16:48:16.836Z,19.55
2023-04-18T16:50:43.252Z,19.56
2023-04-18T16:53:09.683Z,19.55
2023-04-18T16:55:37.978Z,19.55
2023-04-18T16:58:04.449Z,19.54
2023-04-18T17:00:30.959Z,19.55
2023-04-18T17:02:59.364Z,19.55
2023-04-18T17:05:25.828Z,19.54
2023-04-18T17:07:52.370Z,19.53
2023-04-18T17:10:18.851Z,19.53
2023-04-18T17:12:45.335Z,19.52
2023-04-18T17:15:11.782Z,19.52
2023-04-18T17:17:41.044Z,19.51
2023-04-18T17:20:09.406Z,19.50
2023-04-18T17:22:35.837Z,19.50
2023-04-18T17:25:04.224Z,19.50
2023-04-18T17:27:30.670Z,19.50
2023-04-18T17:29:57.172Z,19.50
2023-04-18T17:32:24.507Z,19.49
2023-04-18T17:34:52.790Z,19.50
2023-04-18T17:37:20.080Z,19.48
2023-04-18T17:39:48.400Z,19.49
2023-04-18T17:42:14.842Z,19.49
2023-04-18T17:44:43.156Z,19.49
2023-04-18T17:47:09.577Z,19.49
2023-04-18T17:49:36.829Z,19.49
2023-04-18T17:52:05.126Z,19.49
2023-04-18T17:54:31.654Z,19.49
2023-04-18T17:56:58.889Z,19.48
2023-04-18T17:59:27.233Z,19.49
2023-04-18T18:01:54.634Z,19.48
2023-04-18T18:04:25.810Z,19.47
2023-04-18T18:06:53.123Z,19.46
2023-04-18T18:09:20.357Z,19.45
2023-04-18T18:11:48.647Z,19.45
2023-04-18T18:14:15.116Z,19.44
2023-04-18T18:16:43.437Z,19.45
2023-04-18T18:19:10.696Z,19.46
2023-04-18T18:21:37.114Z,19.46
2023-04-18T18:24:04.454Z,19.46
2023-04-18T18:26:31.707Z,19.44
2023-04-18T18:28:58.189Z,19.44
2023-04-18T18:31:26.508Z,19.42
2023-04-18T18:33:52.947Z,19.43
2023-04-18T18:36:19.484Z,19.43
2023-04-18T18:38:46.723Z,19.43
2023-04-18T18:41:13.968Z,19.43
2023-04-18T18:43:40.443Z,19.43
2023-04-18T18:46:07.085Z,19.43
2023-04-18T18:48:37.048Z,19.42
2023-04-18T18:51:04.308Z,19.42
2023-04-18T18:53:32.658Z,19.41
2023-04-18T18:55:59.141Z,19.40
2023-04-18T18:58:28.304Z,19.38
2023-04-18T19:00:54.748Z,19.38
2023-04-18T19:03:22.110Z,19.39
2023-04-18T19:05:50.508Z,19.40
2023-04-18T19:08:16.905Z,19.39
2023-04-18T19:10:43.395Z,19.37
2023-04-18T19:13:09.881Z,19.36
2023-04-18T19:15:36.294Z,19.35
2023-04-18T19:18:02.806Z,19.35
2023-04-18T19:20:30.119Z,19.37
2023-04-18T19:22:56.680Z,19.37
2023-04-18T19:25:25.083Z,19.37
2023-04-18T19:27:51.482Z,19.35
2023-04-18T19:30:18.000Z,19.33
2023-04-18T19:32:45.253Z,19.34
2023-04-18T19:35:12.552Z,19.34
2023-04-18T19:37:40.840Z,19.37
2023-04-18T19:40:07.275Z,19.38
2023-04-18T19:42:34.514Z,19.36
2023-04-18T19:45:00.936Z,19.35
2023-04-18T19:47:27.524Z,19.35
2023-04-18T19:49:54.059Z,19.35
2023-04-18T19:52:22.426Z,19.33
2023-04-18T19:54:48.900Z,19.33
2023-04-18T19:57:15.318Z,19.32
2023-04-18T19:59:41.749Z,19.31
2023-04-18T20:02:10.076Z,19.30
2023-04-18T20:04:37.639Z,19.31
2023-04-18T20:07:05.039Z,19.29
2023-04-18T20:09:32.306Z,19.28
2023-04-18T20:11:59.541Z,19.25
2023-04-18T20:14:27.888Z,19.23
2023-04-18T20:16:54.485Z,19.24
2023-04-18T20:19:21.774Z,19.28
2023-04-18T20:21:49.011Z,19.27
2023-04-18T20:24:15.513Z,19.22
2023-04-18T20:26:43.852Z,19.20
2023-04-18T20:29:11.099Z,19.18
2023-04-18T20:31:37.550Z,19.17
2023-04-18T20:34:04.899Z,19.21
2023-04-18T20:36:32.155Z,19.24
2023-04-18T20:39:00.490Z,19.19
2023-04-18T20:41:28.087Z,19.22
2023-04-18T20:43:56.375Z,19.21
2023-04-18T20:46:22.910Z,19.22
2023-04-18T20:48:49.334Z,19.21
2023-04-18T20:51:15.836Z,19.20
2023-04-18T20:53:42.252Z,19.19
2023-04-18T20:56:10.629Z,19.15
2023-04-18T20:58:38.924Z,19.14
2023-04-18T21:01:06.215Z,19.15
2023-04-18T21:03:32.886Z,19.14
2023-04-18T21:06:00.241Z,19.14
2023-04-18T21:08:26.648Z,19.14
2023-04-18T21:10:53.849Z,19.17
2023-04-18T21:13:22.167Z,19.17
2023-04-18T21:15:49.419Z,19.17
2023-04-18T21:18:18.784Z,19.16
2023-04-18T21:20:45.276Z,19.16
2023-04-18T21:23:12.507Z,19.15
2023-04-18T21:25:38.903Z,19.16
2023-04-18T21:28:07.221Z,19.17
2023-04-18T21:30:34.493Z,19.19
2023-04-18T21:33:02.857Z,19.15
2023-04-18T21:35:30.214Z,19.13
2023-04-18T21:37:58.507Z,19.14
2023-04-18T21:40:25.750Z,19.13
2023-04-18T21:42:52.252Z,19.15
2023-04-18T21:45:19.533Z,19.11
2023-04-18T21:47:46.942Z,19.13
2023-04-18T21:50:13.471Z,19.12
2023-04-18T21:52:39.972Z,19.12
2023-04-18T21:55:07.233Z,19.11
2023-04-18T21:57:34.464Z,19.13
2023-04-18T22:00:00.940Z,19.12
2023-04-18T22:02:29.393Z,19.10
2023-04-18T22:04:56.764Z,19.12
2023-04-18T22:07:24.008Z,19.12
2023-04-18T22:09:50.462Z,19.13
2023-04-18T22:12:16.965Z,19.13
2023-04-18T22:14:43.414Z,19.12
2023-04-18T22:17:09.932Z,19.11
2023-04-18T22:19:36.426Z,19.10
2023-04-18T22:22:02.894Z,19.10
2023-04-18T22:24:29.375Z,19.11
2023-04-18T22:26:57.662Z,19.10
2023-04-18T22:29:24.250Z,19.10
2023-04-18T22:31:52.543Z,19.10
2023-04-18T22:34:20.814Z,19.09
2023-04-18T22:36:47.136Z,19.09
2023-04-18T22:39:13.637Z,19.10
2023-04-18T22:41:41.914Z,19.10
2023-04-18T22:44:09.142Z,19.10
2023-04-18T22:46:38.808Z,19.08
2023-04-18T22:49:08.155Z,19.09
2023-04-18T22:51:34.612Z,19.09
2023-04-18T22:54:01.063Z,19.06
2023-04-18T22:56:29.315Z,19.05
2023-04-18T22:58:55.813Z,19.06
2023-04-18T23:01:23.211Z,19.06
2023-04-18T23:03:49.805Z,19.06
2023-04-18T23:06:16.403Z,19.06
2023-04-18T23:08:42.762Z,19.06
2023-04-18T23:11:11.928Z,19.06
2023-04-18T23:13:38.360Z,19.02
2023-04-18T23:16:05.700Z,18.93
2023-04-18T23:18:32.178Z,18.92
2023-04-18T23:20:58.592Z,18.89
2023-04-18T23:23:25.813Z,18.82
2023-04-18T23:25:52.234Z,18.86
2023-04-18T23:28:19.538Z,18.80
2023-04-18T23:30:45.886Z,18.80
2023-04-18T23:33:13.156Z,18.80
2023-04-18T23:35:39.575Z,18.76
2023-04-18T23:38:06.097Z,18.74
2023-04-18T23:40:32.558Z,18.76
2023-04-18T23:43:00.860Z,18.70
2023-04-18T23:45:27.308Z,18.72
2023-04-18T23:47:54.560Z,18.70
2023-04-18T23:50:20.964Z,18.68
2023-04-18T23:52:47.301Z,18.68
2023-04-18T23:55:13.791Z,18.67
2023-04-18T23:57:40.172Z,18.68
